Chaplin, Connecticut
Current Conditions -  °F | °C
As of 1:52 PM on Thursday 30 Oct 2014 (Local Time) from KIJD Reporting Station
Broken Clouds Broken Clouds  
Wind Chill: 56°   Ceiling: 6000
Heat Index: 56°   Visibility: 10mi
Dew Point: 37°   Wind: 7mph
Humidity: 49%   Direction: NA
Pressure: 29.94"   Gusts: NA
Location:  41.79°N, 72.13°W
Report Text: KIJD 301752Z AUTO VRB06KT 10SM FEW043 BKN060 13/03 A2994 RMK AO2 SLP139 T01330028 10150 20028 56010
Loading
Personal Weather Stations






























Interactive Weather Map
Tropical Storm Tracking
New forecast layout! Learn more

10-Day Weather Forecast

Advertisements
Track Severe Weather on mobile